createdAt,value
2019-05-30T00:01:08.603Z,1.93
2019-05-30T00:05:12.971Z,1.97
2019-05-30T00:09:17.195Z,1.67
2019-05-30T00:13:21.452Z,3.30
2019-05-30T00:17:25.707Z,1.43
2019-05-30T00:21:29.923Z,4.70
2019-05-30T00:25:34.163Z,2.20
2019-05-30T00:29:38.396Z,2.80
2019-05-30T00:33:42.644Z,3.13
2019-05-30T00:37:46.931Z,3.93
2019-05-30T00:41:51.167Z,2.90
2019-05-30T00:45:55.900Z,3.30
2019-05-30T00:50:00.285Z,2.63
2019-05-30T00:54:04.771Z,2.40
2019-05-30T00:58:09.094Z,4.00
2019-05-30T01:02:13.320Z,2.57
2019-05-30T01:06:17.552Z,2.13
2019-05-30T01:10:21.771Z,1.10
2019-05-30T01:14:26.021Z,2.10
2019-05-30T01:18:30.247Z,1.57
2019-05-30T01:22:34.524Z,2.40
2019-05-30T01:26:38.785Z,1.40
2019-05-30T01:30:56.825Z,1.97
2019-05-30T01:34:48.896Z,2.37
2019-05-30T01:38:53.164Z,6.00
2019-05-30T01:42:57.902Z,1.40
2019-05-30T01:47:02.293Z,1.50
2019-05-30T01:51:06.630Z,4.20
2019-05-30T01:55:11.457Z,1.27
2019-05-30T01:59:15.713Z,3.07
2019-05-30T02:03:20.027Z,2.30
2019-05-30T02:07:24.259Z,4.90
2019-05-30T02:11:28.752Z,3.27
2019-05-30T02:15:32.983Z,2.83
2019-05-30T02:19:37.245Z,2.03
2019-05-30T02:23:41.485Z,2.30
2019-05-30T02:27:45.750Z,3.33
2019-05-30T02:31:49.999Z,2.33
2019-05-30T02:35:54.218Z,2.53
2019-05-30T02:40:01.005Z,1.50
2019-05-30T02:44:05.518Z,1.67
2019-05-30T02:48:11.956Z,4.97
2019-05-30T02:52:16.240Z,4.27
2019-05-30T02:56:20.512Z,4.30
2019-05-30T03:00:34.071Z,1.87
2019-05-30T03:04:38.303Z,1.83
2019-05-30T03:08:42.575Z,8.53
2019-05-30T03:12:46.813Z,3.37
2019-05-30T03:16:51.041Z,4.00
2019-05-30T03:20:55.306Z,3.20
2019-05-30T03:24:59.552Z,3.80
2019-05-30T03:29:05.563Z,2.83
2019-05-30T03:33:29.201Z,3.97
2019-05-30T03:37:26.787Z,10.23
2019-05-30T03:41:21.598Z,9.30
2019-05-30T03:45:27.421Z,2.70
2019-05-30T03:49:34.649Z,3.13
2019-05-30T03:53:38.864Z,2.97
2019-05-30T03:57:48.351Z,2.40
2019-05-30T04:02:11.770Z,3.00
2019-05-30T04:06:27.314Z,2.93
2019-05-30T04:10:36.368Z,4.97
2019-05-30T04:14:44.325Z,4.17
2019-05-30T04:18:48.565Z,5.37
2019-05-30T04:22:52.779Z,2.70
2019-05-30T04:26:57.017Z,4.90
2019-05-30T04:31:01.261Z,4.80
2019-05-30T04:35:05.792Z,2.60
2019-05-30T04:39:11.266Z,3.10
2019-05-30T04:43:17.759Z,2.87
2019-05-30T04:47:21.780Z,2.43
2019-05-30T04:51:26.037Z,2.47
2019-05-30T04:55:33.608Z,3.37
2019-05-30T04:59:37.842Z,2.83
2019-05-30T05:03:46.195Z,3.80
2019-05-30T05:07:47.969Z,4.07
2019-05-30T05:11:52.223Z,4.23
2019-05-30T05:15:56.534Z,4.73
2019-05-30T05:20:00.813Z,3.53
2019-05-30T05:24:05.042Z,3.30
2019-05-30T05:28:09.267Z,4.80
2019-05-30T05:32:14.070Z,4.13
2019-05-30T05:36:18.844Z,4.57
2019-05-30T05:40:24.309Z,4.30
2019-05-30T05:44:28.756Z,3.07
2019-05-30T05:48:33.014Z,3.07
2019-05-30T05:52:37.287Z,3.53
2019-05-30T05:56:41.507Z,6.83
2019-05-30T06:00:45.758Z,2.83
2019-05-30T06:04:51.036Z,3.73
2019-05-30T06:08:55.239Z,3.20
2019-05-30T06:12:59.511Z,2.80
2019-05-30T06:17:03.762Z,2.80
2019-05-30T06:21:08.144Z,4.27
2019-05-30T06:25:23.794Z,3.43
2019-05-30T06:29:26.392Z,3.63
2019-05-30T06:33:30.639Z,3.57
2019-05-30T06:37:35.199Z,4.03
2019-05-30T06:41:39.450Z,3.03
2019-05-30T06:45:43.673Z,3.97
2019-05-30T06:49:47.936Z,2.87
2019-05-30T06:53:52.148Z,3.10
2019-05-30T06:57:56.415Z,2.87
2019-05-30T07:02:00.768Z,4.17
2019-05-30T07:06:05.471Z,2.83
2019-05-30T07:10:10.470Z,4.60
2019-05-30T07:14:14.703Z,3.20
2019-05-30T07:18:19.141Z,5.40
2019-05-30T07:22:23.556Z,4.43
2019-05-30T07:26:27.852Z,2.73
2019-05-30T07:30:32.123Z,3.83
2019-05-30T07:34:36.307Z,4.27
2019-05-30T07:38:40.559Z,2.87
2019-05-30T07:42:44.803Z,3.13
2019-05-30T07:46:49.042Z,4.07
2019-05-30T07:50:53.316Z,5.67
2019-05-30T07:54:57.525Z,3.00
2019-05-30T07:59:01.764Z,3.80
2019-05-30T08:03:06.001Z,2.43
2019-05-30T08:07:10.263Z,2.70
2019-05-30T08:11:14.532Z,3.60
2019-05-30T08:15:18.958Z,6.17
2019-05-30T08:19:23.650Z,2.60
2019-05-30T08:23:28.284Z,2.60
2019-05-30T08:27:32.507Z,3.70
2019-05-30T08:31:38.883Z,3.43
2019-05-30T08:35:49.558Z,5.73
2019-05-30T08:39:50.143Z,3.63
2019-05-30T08:43:54.392Z,3.57
2019-05-30T08:47:58.646Z,5.50
2019-05-30T08:52:04.284Z,3.33
2019-05-30T08:56:08.584Z,3.13
2019-05-30T09:00:14.881Z,2.70
2019-05-30T09:04:19.126Z,2.67
2019-05-30T09:08:23.363Z,3.47
2019-05-30T09:12:27.681Z,3.97
2019-05-30T09:16:32.031Z,2.40
2019-05-30T09:20:37.885Z,2.87
2019-05-30T09:24:42.277Z,4.90
2019-05-30T09:28:46.507Z,3.70
2019-05-30T09:32:50.776Z,2.20
2019-05-30T09:37:14.069Z,3.40
2019-05-30T09:41:37.345Z,4.07
2019-05-30T09:45:42.370Z,5.90
2019-05-30T09:49:46.799Z,3.60
2019-05-30T09:53:53.159Z,4.07
2019-05-30T09:57:57.403Z,3.20
2019-05-30T10:02:01.626Z,2.67
2019-05-30T10:06:06.419Z,4.40
2019-05-30T10:10:11.268Z,4.90
2019-05-30T10:14:15.520Z,3.00
2019-05-30T10:18:19.753Z,2.80
2019-05-30T10:22:24.173Z,2.53
2019-05-30T10:26:28.373Z,3.83
2019-05-30T10:30:32.707Z,2.63
2019-05-30T10:34:36.926Z,2.80
2019-05-30T10:38:41.165Z,4.13
2019-05-30T10:42:46.172Z,4.73
2019-05-30T10:46:52.687Z,4.47
2019-05-30T10:50:57.145Z,6.70
2019-05-30T10:55:01.393Z,2.63
2019-05-30T10:59:05.836Z,4.97
2019-05-30T11:03:10.084Z,4.83
2019-05-30T11:07:32.704Z,4.10
2019-05-30T11:11:36.915Z,2.47
2019-05-30T11:15:43.405Z,2.30
2019-05-30T11:19:47.690Z,3.70
2019-05-30T11:23:52.608Z,5.10
2019-05-30T11:27:56.941Z,5.30
2019-05-30T11:32:01.148Z,3.17
2019-05-30T11:36:05.444Z,3.17
2019-05-30T11:40:10.475Z,4.80
2019-05-30T11:44:14.724Z,5.27
2019-05-30T11:48:18.997Z,3.03
2019-05-30T11:52:31.871Z,3.17
2019-05-30T11:56:36.480Z,2.53
2019-05-30T12:00:40.756Z,3.47
2019-05-30T12:04:45.002Z,2.63
2019-05-30T12:08:49.247Z,2.63
2019-05-30T12:12:53.484Z,5.07
2019-05-30T12:16:57.732Z,3.70
2019-05-30T12:21:02.092Z,4.33
2019-05-30T12:25:06.577Z,4.40
2019-05-30T12:29:10.813Z,5.17
2019-05-30T12:33:15.032Z,3.67
2019-05-30T12:37:19.271Z,5.73
2019-05-30T12:41:25.795Z,3.70
2019-05-30T12:45:30.034Z,4.37
2019-05-30T12:49:34.312Z,4.67
2019-05-30T12:53:38.544Z,7.97
2019-05-30T12:57:42.833Z,5.90
2019-05-30T13:01:47.113Z,5.40
2019-05-30T13:05:51.527Z,7.43
2019-05-30T13:09:57.059Z,11.30
2019-05-30T13:14:20.591Z,5.50
2019-05-30T13:18:24.889Z,6.80
2019-05-30T13:22:29.312Z,9.93
2019-05-30T13:26:33.697Z,7.10
2019-05-30T13:30:37.973Z,7.30
2019-05-30T13:34:42.512Z,7.33
2019-05-30T13:38:46.808Z,7.47
2019-05-30T13:42:51.120Z,9.67
2019-05-30T13:46:55.390Z,11.00
2019-05-30T13:51:00.701Z,8.80
2019-05-30T13:55:05.481Z,9.47
2019-05-30T13:59:10.149Z,9.77
2019-05-30T14:03:14.636Z,11.20
2019-05-30T14:07:18.880Z,9.47
2019-05-30T14:11:23.132Z,12.43
2019-05-30T14:15:27.367Z,12.47
2019-05-30T14:19:31.581Z,14.20
2019-05-30T14:23:36.619Z,12.53
2019-05-30T14:27:40.944Z,12.60
2019-05-30T14:31:45.171Z,10.10
2019-05-30T14:35:49.441Z,10.37
2019-05-30T14:39:53.656Z,13.03
2019-05-30T14:43:57.948Z,12.23
2019-05-30T14:48:02.184Z,12.40
2019-05-30T14:52:06.720Z,13.80
2019-05-30T14:56:11.243Z,14.53
2019-05-30T15:00:17.648Z,15.03
2019-05-30T15:04:22.487Z,15.83
2019-05-30T15:08:26.732Z,16.50
2019-05-30T15:12:31.052Z,15.77
2019-05-30T15:16:35.301Z,17.57
2019-05-30T15:20:39.520Z,16.23
2019-05-30T15:24:43.764Z,16.57
2019-05-30T15:28:47.997Z,15.50
2019-05-30T15:32:52.248Z,15.67
2019-05-30T15:36:56.485Z,18.07
2019-05-30T15:41:00.738Z,15.90
2019-05-30T15:45:05.922Z,18.20
2019-05-30T15:49:10.250Z,18.33
2019-05-30T15:53:15.147Z,16.30
2019-05-30T15:57:19.583Z,20.40
2019-05-30T16:01:23.944Z,17.53
2019-05-30T16:05:28.254Z,15.70
2019-05-30T16:09:46.332Z,16.23
2019-05-30T16:13:38.907Z,16.10
2019-05-30T16:17:43.238Z,15.53
2019-05-30T16:21:47.800Z,14.40
2019-05-30T16:25:52.054Z,15.43
2019-05-30T16:29:56.732Z,13.47
2019-05-30T16:34:01.127Z,13.90
2019-05-30T16:38:05.495Z,15.43
2019-05-30T16:42:12.587Z,14.33
2019-05-30T16:46:16.807Z,15.17
2019-05-30T16:50:23.573Z,14.40
2019-05-30T16:54:27.805Z,15.47
2019-05-30T16:58:32.055Z,14.77
2019-05-30T17:02:36.301Z,15.13
2019-05-30T17:06:40.524Z,13.97
2019-05-30T17:10:44.759Z,14.70
2019-05-30T17:14:49.020Z,16.97
2019-05-30T17:18:53.278Z,19.53
2019-05-30T17:22:57.529Z,16.57
2019-05-30T17:27:01.746Z,16.17
2019-05-30T17:31:05.983Z,17.70
2019-05-30T17:35:10.648Z,17.60
2019-05-30T17:39:15.325Z,18.70
2019-05-30T17:43:20.894Z,17.37
2019-05-30T17:47:25.503Z,16.27
2019-05-30T17:51:30.104Z,17.43
2019-05-30T17:55:34.468Z,20.70
2019-05-30T17:59:38.769Z,16.53
2019-05-30T18:03:43.117Z,17.37
2019-05-30T18:07:47.356Z,16.93
2019-05-30T18:11:52.415Z,17.20
2019-05-30T18:15:56.902Z,15.83
2019-05-30T18:20:01.181Z,16.97
2019-05-30T18:24:05.998Z,18.33
2019-05-30T18:28:10.199Z,16.20
2019-05-30T18:32:14.423Z,17.60
2019-05-30T18:36:18.655Z,20.87
2019-05-30T18:40:33.266Z,18.47
2019-05-30T18:44:37.570Z,18.53
2019-05-30T18:48:41.847Z,17.57
2019-05-30T18:52:46.093Z,17.90
2019-05-30T18:56:50.461Z,17.60
2019-05-30T19:00:54.771Z,16.83
2019-05-30T19:04:59.120Z,17.00
2019-05-30T19:09:03.600Z,18.03
2019-05-30T19:13:07.803Z,16.20
2019-05-30T19:17:12.370Z,16.67
2019-05-30T19:21:16.597Z,19.30
2019-05-30T19:25:20.859Z,17.23
2019-05-30T19:29:26.566Z,16.10
2019-05-30T19:33:30.981Z,17.33
2019-05-30T19:37:35.408Z,17.70
2019-05-30T19:41:53.690Z,19.17
2019-05-30T19:45:45.650Z,20.27
2019-05-30T19:49:49.919Z,18.27
2019-05-30T19:53:54.135Z,15.40
2019-05-30T19:57:58.468Z,15.40
2019-05-30T20:02:02.739Z,16.10
2019-05-30T20:06:08.493Z,15.73
2019-05-30T20:10:13.465Z,16.17
2019-05-30T20:14:17.692Z,15.77
2019-05-30T20:18:21.905Z,17.03
2019-05-30T20:22:26.138Z,16.23
2019-05-30T20:26:30.370Z,16.67
2019-05-30T20:30:34.992Z,16.17
2019-05-30T20:34:39.342Z,16.43
2019-05-30T20:38:43.569Z,16.57
2019-05-30T20:42:47.792Z,13.10
2019-05-30T20:46:52.127Z,13.47
2019-05-30T20:50:56.394Z,11.93
2019-05-30T20:55:00.724Z,14.43
2019-05-30T20:59:05.123Z,12.30
2019-05-30T21:03:09.365Z,12.17
2019-05-30T21:07:13.592Z,12.97
2019-05-30T21:11:18.349Z,11.57
2019-05-30T21:15:22.576Z,11.63
2019-05-30T21:19:26.799Z,12.73
2019-05-30T21:23:31.023Z,13.30
2019-05-30T21:27:36.813Z,12.00
2019-05-30T21:31:41.494Z,12.50
2019-05-30T21:35:46.021Z,13.77
2019-05-30T21:39:50.695Z,12.17
2019-05-30T21:43:55.286Z,12.97
2019-05-30T21:47:59.615Z,13.20
2019-05-30T21:52:04.240Z,14.77
2019-05-30T21:56:08.464Z,13.03
2019-05-30T22:00:13.422Z,12.93
2019-05-30T22:04:17.672Z,11.73
2019-05-30T22:08:21.948Z,12.40
2019-05-30T22:12:26.204Z,11.17
2019-05-30T22:16:32.122Z,11.33
2019-05-30T22:20:36.395Z,12.03
2019-05-30T22:24:41.915Z,11.27
2019-05-30T22:28:46.387Z,10.37
2019-05-30T22:32:52.809Z,10.07
2019-05-30T22:36:57.067Z,12.63
2019-05-30T22:41:01.320Z,9.93
2019-05-30T22:45:06.122Z,9.90
2019-05-30T22:49:10.360Z,12.53
2019-05-30T22:53:14.583Z,10.43
2019-05-30T22:57:18.814Z,9.40
2019-05-30T23:01:23.028Z,8.63
2019-05-30T23:05:27.323Z,9.13
2019-05-30T23:09:31.547Z,9.17
2019-05-30T23:13:40.484Z,9.80
2019-05-30T23:17:41.632Z,8.30
2019-05-30T23:21:46.785Z,8.00
2019-05-30T23:25:51.207Z,9.33
2019-05-30T23:29:55.943Z,8.87
2019-05-30T23:34:00.264Z,9.30
2019-05-30T23:38:04.488Z,8.73
2019-05-30T23:42:08.731Z,8.40
2019-05-30T23:46:12.975Z,9.33
2019-05-30T23:50:17.622Z,7.93
2019-05-30T23:54:22.322Z,7.73
2019-05-30T23:58:26.545Z,7.70
